createdAt,value
2018-12-24T00:00:29.269Z,0
2018-12-24T00:01:29.041Z,0
2018-12-24T00:02:29.030Z,0
2018-12-24T00:03:29.564Z,0
2018-12-24T00:04:29.255Z,0
2018-12-24T00:05:29.495Z,0
2018-12-24T00:06:29.250Z,0
2018-12-24T00:07:29.274Z,0
2018-12-24T00:08:28.486Z,0
2018-12-24T00:09:29.495Z,0
2018-12-24T00:10:29.506Z,0
2018-12-24T00:11:29.005Z,0
2018-12-24T00:12:29.249Z,0
2018-12-24T00:13:28.968Z,0
2018-12-24T00:14:28.994Z,0
2018-12-24T00:15:28.974Z,0
2018-12-24T00:16:29.207Z,0
2018-12-24T00:17:28.711Z,0
2018-12-24T00:18:32.461Z,0
2018-12-24T00:19:29.442Z,0
2018-12-24T00:20:29.205Z,0
2018-12-24T00:21:28.962Z,0
2018-12-24T00:22:28.983Z,0
2018-12-24T00:23:28.701Z,0
2018-12-24T00:24:29.432Z,0
2018-12-24T00:25:28.704Z,0
2018-12-24T00:26:29.215Z,0
2018-12-24T00:27:29.175Z,0
2018-12-24T00:28:28.970Z,0
2018-12-24T00:29:29.429Z,0
2018-12-24T00:30:28.659Z,0
2018-12-24T00:31:29.214Z,0
2018-12-24T00:32:29.169Z,0
2018-12-24T00:33:29.529Z,0
2018-12-24T00:34:29.012Z,0
2018-12-24T00:35:29.175Z,0
2018-12-24T00:36:29.155Z,0
2018-12-24T00:37:28.918Z,0
2018-12-24T00:38:28.920Z,0
2018-12-24T00:39:29.138Z,0
2018-12-24T00:40:28.662Z,0
2018-12-24T00:41:28.923Z,0
2018-12-24T00:42:29.658Z,0
2018-12-24T00:43:29.134Z,0
2018-12-24T00:44:29.122Z,0
2018-12-24T00:45:28.727Z,0
2018-12-24T00:46:28.893Z,0
2018-12-24T00:47:28.922Z,0
2018-12-24T00:48:29.026Z,0
2018-12-24T00:49:29.116Z,0
2018-12-24T00:50:29.091Z,0
2018-12-24T00:51:29.168Z,0
2018-12-24T00:52:29.081Z,0
2018-12-24T00:53:28.350Z,0
2018-12-24T00:54:29.086Z,0
2018-12-24T00:55:29.052Z,0
2018-12-24T00:56:29.359Z,0
2018-12-24T00:57:29.059Z,0
2018-12-24T00:58:29.082Z,0
2018-12-24T00:59:29.414Z,0
2018-12-24T01:00:29.077Z,0
2018-12-24T01:01:28.555Z,0
2018-12-24T01:02:29.056Z,0
2018-12-24T01:03:29.050Z,0
2018-12-24T01:04:29.066Z,0
2018-12-24T01:05:28.556Z,0
2018-12-24T01:06:29.041Z,0
2018-12-24T01:07:29.328Z,0
2018-12-24T01:08:29.047Z,0
2018-12-24T01:09:28.812Z,0
2018-12-24T01:10:28.777Z,0
2018-12-24T01:11:28.582Z,0
2018-12-24T01:12:33.900Z,0
2018-12-24T01:13:29.273Z,0
2018-12-24T01:14:29.265Z,0
2018-12-24T01:15:29.272Z,0
2018-12-24T01:16:29.010Z,0
2018-12-24T01:17:28.750Z,0
2018-12-24T01:18:29.248Z,0
2018-12-24T01:19:30.899Z,0
2018-12-24T01:20:29.269Z,0
2018-12-24T01:21:28.999Z,0
2018-12-24T01:22:28.735Z,0
2018-12-24T01:23:29.235Z,0
2018-12-24T01:24:28.969Z,0
2018-12-24T01:25:29.203Z,0
2018-12-24T01:26:29.011Z,0
2018-12-24T01:27:29.005Z,0
2018-12-24T01:28:29.274Z,0
2018-12-24T01:29:28.721Z,0
2018-12-24T01:30:28.721Z,0
2018-12-24T01:31:29.201Z,0
2018-12-24T01:32:28.702Z,0
2018-12-24T01:33:28.947Z,0
2018-12-24T01:34:28.680Z,0
2018-12-24T01:35:28.675Z,0
2018-12-24T01:36:28.737Z,0
2018-12-24T01:37:28.948Z,0
2018-12-24T01:38:29.219Z,0
2018-12-24T01:39:29.173Z,0
2018-12-24T01:40:28.690Z,0
2018-12-24T01:41:28.473Z,0
2018-12-24T01:42:38.076Z,0
2018-12-24T01:43:29.164Z,0
2018-12-24T01:44:29.170Z,0
2018-12-24T01:45:29.205Z,0
2018-12-24T01:46:28.920Z,0
2018-12-24T01:47:28.631Z,0
2018-12-24T01:48:28.890Z,0
2018-12-24T01:49:29.114Z,0
2018-12-24T01:50:28.620Z,0
2018-12-24T01:51:29.121Z,0
2018-12-24T01:52:28.892Z,0
2018-12-24T01:53:28.381Z,0
2018-12-24T01:54:29.136Z,0
2018-12-24T01:55:28.892Z,0
2018-12-24T01:56:28.615Z,0
2018-12-24T01:57:29.175Z,0
2018-12-24T01:58:28.845Z,0
2018-12-24T01:59:28.841Z,0
2018-12-24T02:00:28.851Z,0
2018-12-24T02:01:28.847Z,0
2018-12-24T02:02:29.089Z,0
2018-12-24T02:03:29.083Z,0
2018-12-24T02:04:30.603Z,0
2018-12-24T02:05:29.087Z,0
2018-12-24T02:06:28.866Z,0
2018-12-24T02:07:29.076Z,0
2018-12-24T02:08:28.804Z,0
2018-12-24T02:09:29.062Z,0
2018-12-24T02:10:28.796Z,0
2018-12-24T02:11:28.678Z,0
2018-12-24T02:12:28.554Z,0
2018-12-24T02:13:29.042Z,0
2018-12-24T02:14:29.054Z,0
2018-12-24T02:15:29.035Z,0
2018-12-24T02:16:28.551Z,0
2018-12-24T02:17:28.782Z,0
2018-12-24T02:18:28.758Z,0
2018-12-24T02:19:28.985Z,0
2018-12-24T02:20:28.967Z,0
2018-12-24T02:21:28.989Z,0
2018-12-24T02:22:28.231Z,0
2018-12-24T02:23:28.778Z,0
2018-12-24T02:24:28.764Z,0
2018-12-24T02:25:29.007Z,0
2018-12-24T02:26:28.782Z,0
2018-12-24T02:27:28.711Z,0
2018-12-24T02:28:28.483Z,0
2018-12-24T02:29:28.705Z,0
2018-12-24T02:30:28.982Z,0
2018-12-24T02:31:28.712Z,0
2018-12-24T02:32:28.692Z,0
2018-12-24T02:33:28.990Z,0
2018-12-24T02:34:29.758Z,0
2018-12-24T02:35:28.668Z,0
2018-12-24T02:36:28.730Z,0
2018-12-24T02:37:28.913Z,0
2018-12-24T02:38:28.891Z,0
2018-12-24T02:39:28.397Z,0
2018-12-24T02:40:28.883Z,0
2018-12-24T02:41:28.669Z,0
2018-12-24T02:42:28.868Z,0
2018-12-24T02:43:28.616Z,0
2018-12-24T02:44:28.871Z,0
2018-12-24T02:45:28.607Z,0
2018-12-24T02:46:28.176Z,0
2018-12-24T02:47:28.848Z,0
2018-12-24T02:48:28.631Z,0
2018-12-24T02:49:28.617Z,0
2018-12-24T02:50:28.662Z,0
2018-12-24T02:51:28.669Z,0
2018-12-24T02:52:28.820Z,0
2018-12-24T02:53:28.557Z,0
2018-12-24T02:54:28.566Z,0
2018-12-24T02:55:28.158Z,0
2018-12-24T02:56:28.815Z,0
2018-12-24T02:57:28.781Z,0
2018-12-24T02:58:28.539Z,0
2018-12-24T02:59:28.780Z,0
2018-12-24T03:00:28.515Z,0
2018-12-24T03:01:28.783Z,0
2018-12-24T03:02:28.503Z,0
2018-12-24T03:03:28.511Z,0
2018-12-24T03:04:28.745Z,0
2018-12-24T03:05:30.645Z,0
2018-12-24T03:06:28.546Z,0
2018-12-24T03:07:28.466Z,0
2018-12-24T03:08:28.451Z,0
2018-12-24T03:09:28.689Z,0
2018-12-24T03:10:28.684Z,0
2018-12-24T03:11:28.485Z,0
2018-12-24T03:12:28.486Z,0
2018-12-24T03:13:28.433Z,0
2018-12-24T03:14:28.666Z,0
2018-12-24T03:15:28.459Z,0
2018-12-24T03:16:28.654Z,0
2018-12-24T03:17:28.389Z,0
2018-12-24T03:18:28.400Z,0
2018-12-24T03:19:28.648Z,0
2018-12-24T03:20:28.451Z,0
2018-12-24T03:21:28.607Z,0
2018-12-24T03:22:28.345Z,0
2018-12-24T03:23:28.366Z,0
2018-12-24T03:24:28.581Z,0
2018-12-24T03:25:28.140Z,0
2018-12-24T03:26:28.648Z,0
2018-12-24T03:27:28.345Z,0
2018-12-24T03:28:28.337Z,0
2018-12-24T03:29:28.314Z,0
2018-12-24T03:30:27.873Z,0
2018-12-24T03:31:28.329Z,0
2018-12-24T03:32:28.372Z,0
2018-12-24T03:33:28.079Z,0
2018-12-24T03:34:28.545Z,0
2018-12-24T03:35:28.920Z,0
2018-12-24T03:36:28.555Z,0
2018-12-24T03:37:28.529Z,0
2018-12-24T03:38:28.280Z,0
2018-12-24T03:39:28.286Z,0
2018-12-24T03:40:28.525Z,0
2018-12-24T03:41:28.055Z,0
2018-12-24T03:42:28.521Z,0
2018-12-24T03:43:28.000Z,0
2018-12-24T03:44:28.504Z,0
2018-12-24T03:45:28.224Z,0
2018-12-24T03:46:28.321Z,0
2018-12-24T03:47:28.065Z,0
2018-12-24T03:48:28.462Z,0
2018-12-24T03:49:28.410Z,0
2018-12-24T03:50:31.748Z,0
2018-12-24T03:51:28.269Z,0
2018-12-24T03:52:27.396Z,0
2018-12-24T03:53:28.394Z,0
2018-12-24T03:54:27.658Z,0
2018-12-24T03:55:28.135Z,0
2018-12-24T03:56:27.953Z,0
2018-12-24T03:57:28.125Z,0
2018-12-24T03:58:28.380Z,0
2018-12-24T03:59:28.367Z,0
2018-12-24T04:00:28.132Z,0
2018-12-24T04:01:28.100Z,0
2018-12-24T04:02:28.095Z,0
2018-12-24T04:03:28.319Z,0
2018-12-24T04:04:28.313Z,0
2018-12-24T04:05:27.812Z,0
2018-12-24T04:06:29.043Z,0
2018-12-24T04:07:28.048Z,0
2018-12-24T04:08:28.041Z,0
2018-12-24T04:09:28.294Z,0
2018-12-24T04:10:28.298Z,0
2018-12-24T04:11:28.840Z,0
2018-12-24T04:12:28.032Z,0
2018-12-24T04:13:32.182Z,0
2018-12-24T04:14:28.227Z,0
2018-12-24T04:15:27.978Z,0
2018-12-24T04:16:28.297Z,0
2018-12-24T04:17:28.215Z,0
2018-12-24T04:18:27.969Z,0
2018-12-24T04:19:28.201Z,0
2018-12-24T04:20:27.902Z,0
2018-12-24T04:21:30.011Z,0
2018-12-24T04:22:28.185Z,0
2018-12-24T04:23:27.934Z,0
2018-12-24T04:24:28.164Z,0
2018-12-24T04:25:27.910Z,0
2018-12-24T04:26:27.772Z,0
2018-12-24T04:27:28.142Z,0
2018-12-24T04:28:27.903Z,0
2018-12-24T04:29:27.889Z,0
2018-12-24T04:30:27.880Z,0
2018-12-24T04:31:27.621Z,0
2018-12-24T04:32:27.386Z,0
2018-12-24T04:33:28.124Z,0
2018-12-24T04:34:27.826Z,0
2018-12-24T04:35:27.566Z,0
2018-12-24T04:36:28.999Z,0
2018-12-24T04:37:28.054Z,0
2018-12-24T04:38:27.802Z,0
2018-12-24T04:39:28.016Z,0
2018-12-24T04:40:27.808Z,0
2018-12-24T04:41:28.100Z,0
2018-12-24T04:42:27.794Z,0
2018-12-24T04:43:36.969Z,0
2018-12-24T04:44:27.534Z,0
2018-12-24T04:45:27.607Z,0
2018-12-24T04:46:28.027Z,0
2018-12-24T04:47:27.785Z,0
2018-12-24T04:48:27.252Z,0
2018-12-24T04:49:27.961Z,0
2018-12-24T04:50:27.972Z,0
2018-12-24T04:51:29.370Z,0
2018-12-24T04:52:27.473Z,0
2018-12-24T04:53:27.469Z,0
2018-12-24T04:54:27.486Z,0
2018-12-24T04:55:27.676Z,0
2018-12-24T04:56:27.672Z,0
2018-12-24T04:57:27.922Z,0
2018-12-24T04:58:27.929Z,0
2018-12-24T04:59:27.651Z,0
2018-12-24T05:00:27.676Z,0
2018-12-24T05:01:27.659Z,0
2018-12-24T05:02:27.383Z,0
2018-12-24T05:03:27.887Z,0
2018-12-24T05:04:27.895Z,0
2018-12-24T05:05:27.378Z,0
2018-12-24T05:06:27.708Z,0
2018-12-24T05:07:27.599Z,0
2018-12-24T05:08:27.364Z,0
2018-12-24T05:09:27.656Z,0
2018-12-24T05:10:27.677Z,0
2018-12-24T05:11:27.561Z,0
2018-12-24T05:12:27.555Z,0
2018-12-24T05:13:27.802Z,0
2018-12-24T05:14:27.541Z,0
2018-12-24T05:15:27.272Z,0
2018-12-24T05:16:27.553Z,0
2018-12-24T05:17:27.266Z,0
2018-12-24T05:18:27.258Z,0
2018-12-24T05:19:27.502Z,0
2018-12-24T05:20:27.488Z,0
2018-12-24T05:21:30.883Z,0
2018-12-24T05:22:27.202Z,0
2018-12-24T05:23:27.447Z,0
2018-12-24T05:24:26.974Z,0
2018-12-24T05:25:26.952Z,0
2018-12-24T05:26:27.229Z,0
2018-12-24T05:27:28.262Z,0
2018-12-24T05:28:27.187Z,0
2018-12-24T05:29:27.163Z,0
2018-12-24T05:30:26.915Z,0
2018-12-24T05:31:27.393Z,0
2018-12-24T05:32:27.636Z,0
2018-12-24T05:33:27.661Z,0
2018-12-24T05:34:27.363Z,0
2018-12-24T05:35:27.363Z,0
2018-12-24T05:36:27.647Z,0
2018-12-24T05:37:27.095Z,0
2018-12-24T05:38:27.362Z,0
2018-12-24T05:39:27.352Z,0
2018-12-24T05:40:27.082Z,0
2018-12-24T05:41:27.133Z,0
2018-12-24T05:42:27.049Z,0
2018-12-24T05:43:27.304Z,0
2018-12-24T05:44:27.577Z,0
2018-12-24T05:45:27.282Z,0
2018-12-24T05:46:27.606Z,0
2018-12-24T05:47:27.259Z,0
2018-12-24T05:48:27.507Z,0
2018-12-24T05:49:26.782Z,0
2018-12-24T05:50:27.253Z,0
2018-12-24T05:51:27.599Z,0
2018-12-24T05:52:27.233Z,0
2018-12-24T05:53:27.202Z,0
2018-12-24T05:54:26.968Z,0
2018-12-24T05:55:26.956Z,0
2018-12-24T05:56:27.233Z,0
2018-12-24T05:57:27.440Z,0
2018-12-24T05:58:27.163Z,0
2018-12-24T05:59:27.457Z,0
2018-12-24T06:00:26.931Z,0
2018-12-24T06:01:27.178Z,0
2018-12-24T06:02:27.396Z,0
2018-12-24T06:03:27.413Z,0
2018-12-24T06:04:29.195Z,0
2018-12-24T06:05:26.643Z,0
2018-12-24T06:06:27.491Z,0
2018-12-24T06:07:26.668Z,0
2018-12-24T06:08:26.635Z,0
2018-12-24T06:09:26.861Z,0
2018-12-24T06:10:27.090Z,0
2018-12-24T06:11:26.627Z,0
2018-12-24T06:12:27.096Z,0
2018-12-24T06:13:26.587Z,0
2018-12-24T06:14:27.093Z,0
2018-12-24T06:15:26.794Z,0
2018-12-24T06:16:27.368Z,0
2018-12-24T06:17:26.758Z,0
2018-12-24T06:18:26.794Z,0
2018-12-24T06:19:27.295Z,0
2018-12-24T06:20:27.277Z,0
2018-12-24T06:21:26.823Z,0
2018-12-24T06:22:28.479Z,0
2018-12-24T06:23:26.487Z,0
2018-12-24T06:24:26.969Z,0
2018-12-24T06:25:26.756Z,0
2018-12-24T06:26:26.770Z,0
2018-12-24T06:27:27.195Z,0
2018-12-24T06:28:26.733Z,0
2018-12-24T06:29:26.681Z,0
2018-12-24T06:30:27.156Z,0
2018-12-24T06:31:27.226Z,0
2018-12-24T06:32:27.158Z,0
2018-12-24T06:33:27.258Z,0
2018-12-24T06:34:27.127Z,0
2018-12-24T06:35:26.884Z,0
2018-12-24T06:36:26.450Z,0
2018-12-24T06:37:27.086Z,0
2018-12-24T06:38:26.604Z,0
2018-12-24T06:39:27.077Z,0
2018-12-24T06:40:26.822Z,0
2018-12-24T06:41:26.934Z,0
2018-12-24T06:42:27.360Z,0
2018-12-24T06:43:26.322Z,0
2018-12-24T06:44:26.801Z,0
2018-12-24T06:45:26.439Z,0
2018-12-24T06:46:26.865Z,0
2018-12-24T06:47:27.036Z,0
2018-12-24T06:48:26.775Z,0
2018-12-24T06:49:27.008Z,0
2018-12-24T06:50:27.006Z,0
2018-12-24T06:51:26.829Z,0
2018-12-24T06:52:26.729Z,0
2018-12-24T06:53:26.499Z,0
2018-12-24T06:54:26.492Z,0
2018-12-24T06:55:26.238Z,0
2018-12-24T06:56:27.024Z,0
2018-12-24T06:57:26.689Z,0
2018-12-24T06:58:26.934Z,0
2018-12-24T06:59:26.942Z,0
2018-12-24T07:00:26.186Z,0
2018-12-24T07:01:26.729Z,0
2018-12-24T07:02:26.956Z,0
2018-12-24T07:03:27.191Z,0
2018-12-24T07:04:26.652Z,0
2018-12-24T07:05:26.198Z,0
2018-12-24T07:06:26.749Z,0
2018-12-24T07:07:26.389Z,0
2018-12-24T07:08:26.786Z,0
2018-12-24T07:09:26.424Z,0
2018-12-24T07:10:26.829Z,0
2018-12-24T07:11:26.434Z,0
2018-12-24T07:12:26.335Z,0
2018-12-24T07:13:26.328Z,0
2018-12-24T07:14:26.547Z,0
2018-12-24T07:15:26.349Z,0
2018-12-24T07:16:26.166Z,0
2018-12-24T07:17:26.558Z,0
2018-12-24T07:18:26.793Z,0
2018-12-24T07:19:26.529Z,0
2018-12-24T07:20:26.881Z,0
2018-12-24T07:21:26.310Z,0
2018-12-24T07:22:26.262Z,0
2018-12-24T07:23:26.046Z,0
2018-12-24T07:24:26.793Z,0
2018-12-24T07:25:26.711Z,0
2018-12-24T07:26:26.751Z,0
2018-12-24T07:27:26.451Z,0
2018-12-24T07:28:25.962Z,0
2018-12-24T07:29:26.192Z,0
2018-12-24T07:30:26.423Z,0
2018-12-24T07:31:27.244Z,0
2018-12-24T07:32:26.663Z,0
2018-12-24T07:33:25.925Z,0
2018-12-24T07:34:34.454Z,0
2018-12-24T07:35:26.436Z,0
2018-12-24T07:36:26.250Z,5
2018-12-24T07:37:26.393Z,5
2018-12-24T07:38:26.435Z,5
2018-12-24T07:39:26.381Z,5
2018-12-24T07:40:26.171Z,5
2018-12-24T07:41:26.389Z,5
2018-12-24T07:42:26.349Z,5
2018-12-24T07:43:26.104Z,5
2018-12-24T07:44:33.802Z,5
2018-12-24T07:45:26.326Z,5
2018-12-24T07:46:26.550Z,5
2018-12-24T07:47:26.563Z,5
2018-12-24T07:48:26.579Z,5
2018-12-24T07:49:26.062Z,5
2018-12-24T07:50:26.541Z,5
2018-12-24T07:51:25.763Z,5
2018-12-24T07:52:26.264Z,5
2018-12-24T07:53:26.941Z,10
2018-12-24T07:54:26.487Z,10
2018-12-24T07:55:26.238Z,10
2018-12-24T07:56:26.332Z,10
2018-12-24T07:57:26.246Z,10
2018-12-24T07:58:25.975Z,10
2018-12-24T07:59:25.964Z,10
2018-12-24T08:00:26.205Z,10
2018-12-24T08:01:26.001Z,10
2018-12-24T08:02:26.440Z,15
2018-12-24T08:03:25.943Z,15
2018-12-24T08:04:25.921Z,15
2018-12-24T08:05:26.398Z,15
2018-12-24T08:06:26.161Z,15
2018-12-24T08:07:26.011Z,15
2018-12-24T08:08:28.292Z,20
2018-12-24T08:09:26.367Z,20
2018-12-24T08:10:25.880Z,20
2018-12-24T08:11:25.905Z,20
2018-12-24T08:12:26.118Z,20
2018-12-24T08:13:26.189Z,20
2018-12-24T08:14:32.857Z,20
2018-12-24T08:15:26.070Z,20
2018-12-24T08:16:26.085Z,20
2018-12-24T08:17:25.717Z,20
2018-12-24T08:18:27.098Z,25
2018-12-24T08:19:26.062Z,25
2018-12-24T08:20:25.809Z,25
2018-12-24T08:21:26.050Z,25
2018-12-24T08:22:25.289Z,25
2018-12-24T08:23:26.881Z,30
2018-12-24T08:24:25.511Z,30
2018-12-24T08:25:26.272Z,35
2018-12-24T08:26:26.010Z,35
2018-12-24T08:27:26.010Z,30
2018-12-24T08:28:26.228Z,30
2018-12-24T08:29:26.224Z,30
2018-12-24T08:30:25.963Z,30
2018-12-24T08:31:26.050Z,30
2018-12-24T08:32:25.950Z,35
2018-12-24T08:33:26.203Z,35
2018-12-24T08:34:26.199Z,35
2018-12-24T08:35:25.905Z,40
2018-12-24T08:36:25.694Z,40
2018-12-24T08:37:25.900Z,45
2018-12-24T08:38:25.892Z,45
2018-12-24T08:39:26.950Z,50
2018-12-24T08:40:25.405Z,50
2018-12-24T08:41:26.121Z,50
2018-12-24T08:42:25.632Z,50
2018-12-24T08:43:26.151Z,55
2018-12-24T08:44:25.870Z,55
2018-12-24T08:45:25.727Z,55
2018-12-24T08:46:25.846Z,55
2018-12-24T08:47:25.825Z,60
2018-12-24T08:48:25.840Z,60
2018-12-24T08:49:25.811Z,55
2018-12-24T08:50:25.832Z,55
2018-12-24T08:51:25.963Z,55
2018-12-24T08:52:25.860Z,55
2018-12-24T08:53:25.793Z,55
2018-12-24T08:54:29.468Z,55
2018-12-24T08:55:25.784Z,55
2018-12-24T08:56:25.567Z,50
2018-12-24T08:57:25.754Z,50
2018-12-24T08:58:25.350Z,50
2018-12-24T08:59:25.730Z,50
2018-12-24T09:00:25.970Z,50
2018-12-24T09:01:25.774Z,50
2018-12-24T09:02:25.566Z,50
2018-12-24T09:03:25.706Z,50
2018-12-24T09:04:25.465Z,45
2018-12-24T09:05:25.940Z,45
2018-12-24T09:06:25.957Z,45
2018-12-24T09:07:25.931Z,45
2018-12-24T09:08:25.920Z,40
2018-12-24T09:09:26.892Z,40
2018-12-24T09:10:25.520Z,40
2018-12-24T09:11:25.970Z,40
2018-12-24T09:12:25.393Z,45
2018-12-24T09:13:25.919Z,45
2018-12-24T09:14:25.112Z,40
2018-12-24T09:15:25.133Z,45
2018-12-24T09:16:25.643Z,45
2018-12-24T09:17:25.367Z,50
2018-12-24T09:18:25.113Z,50
2018-12-24T09:19:25.588Z,50
2018-12-24T09:20:25.584Z,50
2018-12-24T09:21:25.827Z,50
2018-12-24T09:22:25.558Z,55
2018-12-24T09:23:25.308Z,55
2018-12-24T09:24:25.541Z,60
2018-12-24T09:25:27.039Z,65
2018-12-24T09:26:25.555Z,65
2018-12-24T09:27:25.278Z,70
2018-12-24T09:28:25.496Z,70
2018-12-24T09:29:25.503Z,70
2018-12-24T09:30:25.255Z,70
2018-12-24T09:31:25.649Z,70
2018-12-24T09:32:25.748Z,65
2018-12-24T09:33:25.759Z,65
2018-12-24T09:34:25.755Z,65
2018-12-24T09:35:25.224Z,70
2018-12-24T09:36:25.564Z,70
2018-12-24T09:37:25.439Z,70
2018-12-24T09:38:25.718Z,70
2018-12-24T09:39:25.441Z,70
2018-12-24T09:40:25.713Z,75
2018-12-24T09:41:25.467Z,75
2018-12-24T09:42:25.688Z,75
2018-12-24T09:43:25.660Z,75
2018-12-24T09:44:25.448Z,80
2018-12-24T09:45:25.154Z,80
2018-12-24T09:46:25.760Z,80
2018-12-24T09:47:25.123Z,75
2018-12-24T09:48:25.360Z,75
2018-12-24T09:49:25.368Z,75
2018-12-24T09:50:25.354Z,75
2018-12-24T09:51:25.154Z,75
2018-12-24T09:52:25.093Z,75
2018-12-24T09:53:25.570Z,75
2018-12-24T09:54:25.567Z,75
2018-12-24T09:55:26.842Z,75
2018-12-24T09:56:25.342Z,75
2018-12-24T09:57:25.083Z,75
2018-12-24T09:58:25.537Z,75
2018-12-24T09:59:25.530Z,75
2018-12-24T10:00:25.599Z,75
2018-12-24T10:01:25.391Z,75
2018-12-24T10:02:25.490Z,75
2018-12-24T10:03:25.151Z,75
2018-12-24T10:04:25.514Z,80
2018-12-24T10:05:25.256Z,85
2018-12-24T10:06:25.304Z,85
2018-12-24T10:07:25.236Z,85
2018-12-24T10:08:25.495Z,80
2018-12-24T10:09:25.455Z,80
2018-12-24T10:10:25.469Z,75
2018-12-24T10:11:25.223Z,75
2018-12-24T10:12:25.192Z,75
2018-12-24T10:13:25.193Z,70
2018-12-24T10:14:25.187Z,70
2018-12-24T10:15:25.171Z,70
2018-12-24T10:16:24.952Z,65
2018-12-24T10:17:25.425Z,65
2018-12-24T10:18:25.411Z,60
2018-12-24T10:19:25.148Z,55
2018-12-24T10:20:24.885Z,55
2018-12-24T10:21:25.170Z,55
2018-12-24T10:22:25.449Z,55
2018-12-24T10:23:25.129Z,55
2018-12-24T10:24:24.881Z,60
2018-12-24T10:25:27.728Z,60
2018-12-24T10:26:25.274Z,60
2018-12-24T10:27:24.603Z,65
2018-12-24T10:28:25.347Z,65
2018-12-24T10:29:26.348Z,70
2018-12-24T10:30:25.075Z,75
2018-12-24T10:31:25.357Z,80
2018-12-24T10:32:25.079Z,85
2018-12-24T10:33:25.057Z,90
2018-12-24T10:34:25.313Z,95
2018-12-24T10:35:24.796Z,95
2018-12-24T10:36:25.298Z,100
2018-12-24T10:37:24.791Z,100
2018-12-24T10:38:25.031Z,100
2018-12-24T10:39:25.273Z,95
2018-12-24T10:40:26.130Z,95
2018-12-24T10:41:25.331Z,90
2018-12-24T10:42:25.236Z,85
2018-12-24T10:43:25.243Z,80
2018-12-24T10:44:24.988Z,75
2018-12-24T10:45:26.416Z,75
2018-12-24T10:46:25.130Z,75
2018-12-24T10:47:25.206Z,75
2018-12-24T10:48:24.964Z,75
2018-12-24T10:49:25.257Z,75
2018-12-24T10:50:25.238Z,75
2018-12-24T10:51:25.070Z,75
2018-12-24T10:52:24.953Z,75
2018-12-24T10:53:24.673Z,70
2018-12-24T10:54:25.152Z,70
2018-12-24T10:55:24.921Z,70
2018-12-24T10:56:25.513Z,70
2018-12-24T10:57:24.906Z,65
2018-12-24T10:58:24.659Z,65
2018-12-24T10:59:24.642Z,65
2018-12-24T11:00:24.962Z,70
2018-12-24T11:01:24.950Z,70
2018-12-24T11:02:25.117Z,70
2018-12-24T11:03:24.618Z,70
2018-12-24T11:04:24.857Z,70
2018-12-24T11:05:25.108Z,75
2018-12-24T11:06:24.925Z,75
2018-12-24T11:07:25.103Z,75
2018-12-24T11:08:24.848Z,75
2018-12-24T11:09:25.080Z,75
2018-12-24T11:10:24.809Z,70
2018-12-24T11:11:25.158Z,70
2018-12-24T11:12:24.808Z,70
2018-12-24T11:13:24.548Z,70
2018-12-24T11:14:24.806Z,70
2018-12-24T11:15:32.003Z,70
2018-12-24T11:16:24.599Z,70
2018-12-24T11:17:24.636Z,75
2018-12-24T11:18:24.270Z,75
2018-12-24T11:19:24.254Z,75
2018-12-24T11:20:24.107Z,75
2018-12-24T11:21:24.749Z,75
2018-12-24T11:22:25.005Z,75
2018-12-24T11:23:24.732Z,75
2018-12-24T11:24:24.480Z,70
2018-12-24T11:25:24.731Z,70
2018-12-24T11:26:24.861Z,70
2018-12-24T11:27:24.790Z,70
2018-12-24T11:28:24.688Z,75
2018-12-24T11:29:24.681Z,80
2018-12-24T11:30:24.745Z,85
2018-12-24T11:31:25.009Z,90
2018-12-24T11:32:24.675Z,95
2018-12-24T11:33:24.654Z,95
2018-12-24T11:34:24.649Z,90
2018-12-24T11:35:24.636Z,90
2018-12-24T11:36:24.723Z,85
2018-12-24T11:37:24.626Z,90
2018-12-24T11:38:24.908Z,90
2018-12-24T11:39:24.724Z,90
2018-12-24T11:40:24.863Z,85
2018-12-24T11:41:25.706Z,85
2018-12-24T11:42:26.011Z,80
2018-12-24T11:43:24.628Z,75
2018-12-24T11:44:24.093Z,70
2018-12-24T11:45:24.586Z,65
2018-12-24T11:46:24.620Z,65
2018-12-24T11:47:24.351Z,65
2018-12-24T11:48:24.321Z,60
2018-12-24T11:49:24.563Z,65
2018-12-24T11:50:24.795Z,65
2018-12-24T11:51:24.302Z,70
2018-12-24T11:52:24.579Z,70
2018-12-24T11:53:24.526Z,70
2018-12-24T11:54:24.526Z,70
2018-12-24T11:55:24.773Z,65
2018-12-24T11:56:28.267Z,70
2018-12-24T11:57:24.510Z,75
2018-12-24T11:58:26.001Z,85
2018-12-24T11:59:24.326Z,90
2018-12-24T12:00:24.270Z,100
2018-12-24T12:01:24.106Z,105
2018-12-24T12:02:24.473Z,110
2018-12-24T12:03:24.782Z,115
2018-12-24T12:04:24.495Z,115
2018-12-24T12:05:24.462Z,115
2018-12-24T12:06:29.400Z,115
2018-12-24T12:07:24.430Z,115
2018-12-24T12:08:24.415Z,105
2018-12-24T12:09:24.416Z,95
2018-12-24T12:10:24.179Z,90
2018-12-24T12:11:24.525Z,75
2018-12-24T12:12:24.403Z,60
2018-12-24T12:13:24.399Z,50
2018-12-24T12:14:24.154Z,50
2018-12-24T12:15:24.391Z,50
2018-12-24T12:16:24.047Z,50
2018-12-24T12:17:24.155Z,50
2018-12-24T12:18:24.115Z,45
2018-12-24T12:19:24.128Z,45
2018-12-24T12:20:25.083Z,45
2018-12-24T12:21:24.647Z,40
2018-12-24T12:22:26.157Z,40
2018-12-24T12:23:24.656Z,35
2018-12-24T12:24:24.578Z,40
2018-12-24T12:25:24.310Z,40
2018-12-24T12:26:24.575Z,50
2018-12-24T12:27:28.851Z,60
2018-12-24T12:28:25.774Z,65
2018-12-24T12:29:24.540Z,75
2018-12-24T12:30:24.542Z,80
2018-12-24T12:31:24.042Z,85
2018-12-24T12:32:24.534Z,90
2018-12-24T12:33:24.283Z,100
2018-12-24T12:34:24.231Z,105
2018-12-24T12:35:24.561Z,110
2018-12-24T12:36:24.308Z,115
2018-12-24T12:37:23.722Z,115
2018-12-24T12:38:32.107Z,115
2018-12-24T12:39:24.462Z,115
2018-12-24T12:40:24.227Z,115
2018-12-24T12:41:24.221Z,115
2018-12-24T12:42:24.735Z,115
2018-12-24T12:43:25.114Z,115
2018-12-24T12:44:24.179Z,110
2018-12-24T12:45:24.192Z,110
2018-12-24T12:46:24.430Z,110
2018-12-24T12:47:23.921Z,110
2018-12-24T12:48:25.941Z,110
2018-12-24T12:49:23.900Z,110
2018-12-24T12:50:23.895Z,110
2018-12-24T12:51:24.153Z,110
2018-12-24T12:52:24.138Z,105
2018-12-24T12:53:23.867Z,105
2018-12-24T12:54:24.382Z,105
2018-12-24T12:55:23.871Z,105
2018-12-24T12:56:24.370Z,110
2018-12-24T12:57:26.478Z,110
2018-12-24T12:58:24.108Z,115
2018-12-24T12:59:23.842Z,115
2018-12-24T13:00:23.827Z,115
2018-12-24T13:01:24.155Z,115
2018-12-24T13:02:26.190Z,115
2018-12-24T13:03:23.797Z,115
2018-12-24T13:04:24.061Z,110
2018-12-24T13:05:24.041Z,110
2018-12-24T13:06:23.860Z,110
2018-12-24T13:07:24.037Z,110
2018-12-24T13:08:24.260Z,105
2018-12-24T13:09:24.039Z,105
2018-12-24T13:10:24.008Z,110
2018-12-24T13:11:23.798Z,110
2018-12-24T13:12:23.751Z,110
2018-12-24T13:13:24.057Z,110
2018-12-24T13:14:24.010Z,105
2018-12-24T13:15:23.961Z,110
2018-12-24T13:16:24.198Z,105
2018-12-24T13:17:23.719Z,100
2018-12-24T13:18:23.954Z,100
2018-12-24T13:19:23.982Z,100
2018-12-24T13:20:31.871Z,100
2018-12-24T13:21:23.925Z,100
2018-12-24T13:22:23.923Z,100
2018-12-24T13:23:23.900Z,105
2018-12-24T13:24:23.902Z,105
2018-12-24T13:25:23.432Z,105
2018-12-24T13:26:23.981Z,100
2018-12-24T13:27:23.650Z,100
2018-12-24T13:28:25.804Z,100
2018-12-24T13:29:23.985Z,95
2018-12-24T13:30:23.627Z,95
2018-12-24T13:31:23.613Z,95
2018-12-24T13:32:24.105Z,95
2018-12-24T13:33:23.859Z,100
2018-12-24T13:34:23.841Z,100
2018-12-24T13:35:24.095Z,95
2018-12-24T13:36:24.192Z,95
2018-12-24T13:37:23.807Z,90
2018-12-24T13:38:23.797Z,90
2018-12-24T13:39:23.791Z,90
2018-12-24T13:40:23.813Z,90
2018-12-24T13:41:23.551Z,90
2018-12-24T13:42:23.545Z,90
2018-12-24T13:43:23.591Z,90
2018-12-24T13:44:23.787Z,90
2018-12-24T13:45:23.847Z,90
2018-12-24T13:46:23.837Z,90
2018-12-24T13:47:23.756Z,90
2018-12-24T13:48:23.482Z,90
2018-12-24T13:49:23.488Z,85
2018-12-24T13:50:23.506Z,85
2018-12-24T13:51:24.096Z,85
2018-12-24T13:52:23.260Z,85
2018-12-24T13:53:23.447Z,80
2018-12-24T13:54:23.695Z,75
2018-12-24T13:55:23.691Z,75
2018-12-24T13:56:23.680Z,70
2018-12-24T13:57:23.683Z,70
2018-12-24T13:58:25.805Z,70
2018-12-24T13:59:26.032Z,70
2018-12-24T14:00:23.754Z,70
2018-12-24T14:01:23.959Z,75
2018-12-24T14:02:25.900Z,80
2018-12-24T14:03:23.624Z,85
2018-12-24T14:04:23.623Z,85
2018-12-24T14:05:23.632Z,80
2018-12-24T14:06:23.621Z,80
2018-12-24T14:07:25.919Z,80
2018-12-24T14:08:23.114Z,90
2018-12-24T14:09:23.359Z,90
2018-12-24T14:10:23.821Z,90
2018-12-24T14:11:23.596Z,95
2018-12-24T14:12:23.336Z,95
2018-12-24T14:13:24.375Z,90
2018-12-24T14:14:23.566Z,90
2018-12-24T14:15:23.319Z,90
2018-12-24T14:16:26.347Z,95
2018-12-24T14:17:23.316Z,95
2018-12-24T14:18:23.290Z,95
2018-12-24T14:19:23.052Z,90
2018-12-24T14:20:23.889Z,85
2018-12-24T14:21:23.315Z,80
2018-12-24T14:22:23.255Z,70
2018-12-24T14:23:23.257Z,65
2018-12-24T14:24:23.511Z,60
2018-12-24T14:25:23.079Z,50
2018-12-24T14:26:23.501Z,45
2018-12-24T14:27:23.224Z,40
2018-12-24T14:28:25.125Z,40
2018-12-24T14:29:22.980Z,35